sensor_id;sensor_type;location;lat;lon;timestamp;pressure;altitude;pressure_sealevel;temperature;humidity
18765;BME280;9511;54.242;12.448;2023-05-12T03:05:25;101853.69;;;8.94;79.02
18765;BME280;9511;54.242;12.448;2023-05-12T03:07:53;101859.69;;;8.90;79.33
18765;BME280;9511;54.242;12.448;2023-05-12T03:10:20;101856.81;;;8.85;79.38
18765;BME280;9511;54.242;12.448;2023-05-12T03:12:48;101852.44;;;8.86;80.02
18765;BME280;9511;54.242;12.448;2023-05-12T03:15:17;101851.59;;;8.87;80.34
18765;BME280;9511;54.242;12.448;2023-05-12T03:17:44;101849.63;;;8.83;80.15
18765;BME280;9511;54.242;12.448;2023-05-12T03:20:12;101845.19;;;8.82;79.62
18765;BME280;9511;54.242;12.448;2023-05-12T03:22:40;101846.09;;;8.82;79.85
18765;BME280;9511;54.242;12.448;2023-05-12T03:25:08;101847.81;;;8.82;79.45
18765;BME280;9511;54.242;12.448;2023-05-12T03:27:36;101846.84;;;8.80;79.48
18765;BME280;9511;54.242;12.448;2023-05-12T03:30:04;101852.78;;;8.75;79.81
18765;BME280;9511;54.242;12.448;2023-05-12T03:32:35;101851.00;;;8.74;79.91
18765;BME280;9511;54.242;12.448;2023-05-12T03:35:04;101860.63;;;8.74;79.93
18765;BME280;9511;54.242;12.448;2023-05-12T03:37:32;101864.19;;;8.74;79.85
18765;BME280;9511;54.242;12.448;2023-05-12T03:40:01;101858.91;;;8.74;80.24
18765;BME280;9511;54.242;12.448;2023-05-12T03:42:29;101861.78;;;8.79;80.95
18765;BME280;9511;54.242;12.448;2023-05-12T03:44:57;101862.69;;;8.80;80.55
18765;BME280;9511;54.242;12.448;2023-05-12T03:47:24;101875.09;;;8.82;80.17
18765;BME280;9511;54.242;12.448;2023-05-12T03:49:51;101867.44;;;8.87;80.29
18765;BME280;9511;54.242;12.448;2023-05-12T03:52:19;101873.78;;;8.90;80.39
18765;BME280;9511;54.242;12.448;2023-05-12T03:54:46;101876.47;;;8.92;80.68
18765;BME280;9511;54.242;12.448;2023-05-12T03:57:15;101876.78;;;8.98;79.66
18765;BME280;9511;54.242;12.448;2023-05-12T03:59:43;101872.63;;;9.03;79.56
18765;BME280;9511;54.242;12.448;2023-05-12T04:02:12;101875.34;;;9.04;79.57
18765;BME280;9511;54.242;12.448;2023-05-12T04:04:39;101879.28;;;9.13;79.57
18765;BME280;9511;54.242;12.448;2023-05-12T04:07:06;101873.28;;;9.17;78.97
18765;BME280;9511;54.242;12.448;2023-05-12T04:09:34;101873.81;;;9.27;79.40
18765;BME280;9511;54.242;12.448;2023-05-12T04:12:01;101880.22;;;9.32;79.50
18765;BME280;9511;54.242;12.448;2023-05-12T04:14:30;101884.97;;;9.40;79.10
18765;BME280;9511;54.242;12.448;2023-05-12T04:16:57;101885.25;;;9.46;78.81
18765;BME280;9511;54.242;12.448;2023-05-12T04:19:24;101886.38;;;9.51;79.27
18765;BME280;9511;54.242;12.448;2023-05-12T04:21:51;101890.38;;;9.61;79.37
18765;BME280;9511;54.242;12.448;2023-05-12T04:24:19;101897.84;;;9.69;78.75
18765;BME280;9511;54.242;12.448;2023-05-12T04:26:46;101899.09;;;9.77;78.95
18765;BME280;9511;54.242;12.448;2023-05-12T04:29:14;101896.88;;;9.87;78.88
18765;BME280;9511;54.242;12.448;2023-05-12T04:31:43;101911.19;;;9.92;78.82
18765;BME280;9511;54.242;12.448;2023-05-12T04:34:10;101912.50;;;10.01;78.84
18765;BME280;9511;54.242;12.448;2023-05-12T04:36:37;101910.94;;;10.05;78.99
18765;BME280;9511;54.242;12.448;2023-05-12T04:39:05;101909.41;;;10.10;79.01
18765;BME280;9511;54.242;12.448;2023-05-12T04:41:33;101923.91;;;10.20;78.88
18765;BME280;9511;54.242;12.448;2023-05-12T04:44:01;101915.50;;;10.27;78.85
18765;BME280;9511;54.242;12.448;2023-05-12T04:46:29;101921.06;;;10.33;78.82
18765;BME280;9511;54.242;12.448;2023-05-12T04:48:57;101927.34;;;10.36;78.90
18765;BME280;9511;54.242;12.448;2023-05-12T04:51:25;101924.03;;;10.41;78.98
18765;BME280;9511;54.242;12.448;2023-05-12T04:53:52;101921.91;;;10.53;78.81
18765;BME280;9511;54.242;12.448;2023-05-12T04:56:20;101923.28;;;10.64;78.89
18765;BME280;9511;54.242;12.448;2023-05-12T04:58:48;101928.09;;;10.73;78.77
18765;BME280;9511;54.242;12.448;2023-05-12T05:01:16;101929.38;;;10.82;78.68
18765;BME280;9511;54.242;12.448;2023-05-12T05:03:43;101926.28;;;10.93;78.58
18765;BME280;9511;54.242;12.448;2023-05-12T05:06:12;101934.28;;;10.94;78.30
18765;BME280;9511;54.242;12.448;2023-05-12T05:08:40;101930.34;;;11.05;78.33
18765;BME280;9511;54.242;12.448;2023-05-12T05:11:08;101929.22;;;11.21;77.80
18765;BME280;9511;54.242;12.448;2023-05-12T05:13:35;101930.56;;;11.32;77.61
18765;BME280;9511;54.242;12.448;2023-05-12T05:16:03;101929.28;;;11.43;76.96
18765;BME280;9511;54.242;12.448;2023-05-12T05:18:32;101936.00;;;11.58;77.10
18765;BME280;9511;54.242;12.448;2023-05-12T05:20:59;101938.09;;;11.65;76.92
18765;BME280;9511;54.242;12.448;2023-05-12T05:23:28;101937.66;;;11.77;75.99
18765;BME280;9511;54.242;12.448;2023-05-12T05:25:56;101938.13;;;11.87;76.02
18765;BME280;9511;54.242;12.448;2023-05-12T05:28:23;101939.44;;;11.99;76.02
18765;BME280;9511;54.242;12.448;2023-05-12T05:30:51;101937.91;;;12.05;75.35
18765;BME280;9511;54.242;12.448;2023-05-12T05:33:19;101941.78;;;12.15;74.44
18765;BME280;9511;54.242;12.448;2023-05-12T05:35:46;101940.56;;;12.29;73.89
18765;BME280;9511;54.242;12.448;2023-05-12T05:38:14;101950.50;;;12.35;73.65
18765;BME280;9511;54.242;12.448;2023-05-12T05:40:43;101945.59;;;12.45;73.15
18765;BME280;9511;54.242;12.448;2023-05-12T05:43:10;101945.06;;;12.56;73.18
18765;BME280;9511;54.242;12.448;2023-05-12T05:45:38;101948.09;;;12.66;72.31
18765;BME280;9511;54.242;12.448;2023-05-12T05:48:06;101945.13;;;12.83;72.28
18765;BME280;9511;54.242;12.448;2023-05-12T05:50:33;101953.47;;;12.93;71.59
18765;BME280;9511;54.242;12.448;2023-05-12T05:53:00;101955.78;;;13.08;71.53
18765;BME280;9511;54.242;12.448;2023-05-12T05:55:28;101953.41;;;13.17;71.53
18765;BME280;9511;54.242;12.448;2023-05-12T05:57:57;101960.00;;;13.28;70.87
18765;BME280;9511;54.242;12.448;2023-05-12T06:00:25;101962.13;;;13.39;71.00
18765;BME280;9511;54.242;12.448;2023-05-12T06:02:53;101957.22;;;13.51;69.67
18765;BME280;9511;54.242;12.448;2023-05-12T06:05:21;101958.66;;;13.68;70.08
18765;BME280;9511;54.242;12.448;2023-05-12T06:07:49;101959.94;;;13.81;69.34
18765;BME280;9511;54.242;12.448;2023-05-12T06:10:16;101961.13;;;13.91;67.88
18765;BME280;9511;54.242;12.448;2023-05-12T06:12:43;101965.84;;;13.99;66.91
18765;BME280;9511;54.242;12.448;2023-05-12T06:15:12;101967.03;;;14.11;66.17
18765;BME280;9511;54.242;12.448;2023-05-12T06:17:40;101963.00;;;14.23;65.76
18765;BME280;9511;54.242;12.448;2023-05-12T06:20:08;101973.84;;;14.31;65.56
18765;BME280;9511;54.242;12.448;2023-05-12T06:22:38;101972.31;;;14.39;64.89
18765;BME280;9511;54.242;12.448;2023-05-12T06:25:07;101975.25;;;14.47;64.68
18765;BME280;9511;54.242;12.448;2023-05-12T06:27:35;101977.25;;;14.55;64.55
18765;BME280;9511;54.242;12.448;2023-05-12T06:30:03;101978.44;;;14.65;64.19
18765;BME280;9511;54.242;12.448;2023-05-12T06:32:32;101976.94;;;14.75;63.95
18765;BME280;9511;54.242;12.448;2023-05-12T06:34:59;101971.75;;;14.81;63.22
18765;BME280;9511;54.242;12.448;2023-05-12T06:37:27;101975.56;;;14.91;63.01
18765;BME280;9511;54.242;12.448;2023-05-12T06:39:54;101976.75;;;15.02;62.25
18765;BME280;9511;54.242;12.448;2023-05-12T06:42:23;101984.81;;;15.03;61.92
18765;BME280;9511;54.242;12.448;2023-05-12T06:44:51;101970.78;;;15.10;61.75
18765;BME280;9511;54.242;12.448;2023-05-12T06:47:20;101979.03;;;15.21;61.72
18765;BME280;9511;54.242;12.448;2023-05-12T06:49:50;101975.63;;;15.27;61.00
18765;BME280;9511;54.242;12.448;2023-05-12T06:52:17;101971.47;;;15.38;60.99
18765;BME280;9511;54.242;12.448;2023-05-12T06:54:45;101976.00;;;15.42;60.65
18765;BME280;9511;54.242;12.448;2023-05-12T06:57:12;101969.09;;;15.50;60.20
18765;BME280;9511;54.242;12.448;2023-05-12T06:59:40;101974.59;;;15.58;59.27
18765;BME280;9511;54.242;12.448;2023-05-12T07:02:07;101975.84;;;15.71;59.30
18765;BME280;9511;54.242;12.448;2023-05-12T07:04:34;101980.75;;;15.90;58.79
18765;BME280;9511;54.242;12.448;2023-05-12T07:07:03;101974.03;;;16.09;58.14
18765;BME280;9511;54.242;12.448;2023-05-12T07:09:31;101979.47;;;16.12;58.76
18765;BME280;9511;54.242;12.448;2023-05-12T07:11:58;101976.81;;;16.13;58.52
18765;BME280;9511;54.242;12.448;2023-05-12T07:14:26;101977.75;;;16.17;59.38
18765;BME280;9511;54.242;12.448;2023-05-12T07:16:53;101974.50;;;16.29;59.58
18765;BME280;9511;54.242;12.448;2023-05-12T07:19:21;101970.53;;;16.52;59.58
18765;BME280;9511;54.242;12.448;2023-05-12T07:21:49;101965.28;;;16.58;59.38
18765;BME280;9511;54.242;12.448;2023-05-12T07:24:18;101977.16;;;16.72;59.15
18765;BME280;9511;54.242;12.448;2023-05-12T07:26:46;101974.59;;;16.77;58.80
18765;BME280;9511;54.242;12.448;2023-05-12T07:29:13;101973.00;;;16.87;58.74
18765;BME280;9511;54.242;12.448;2023-05-12T07:31:40;101975.06;;;17.03;58.89
18765;BME280;9511;54.242;12.448;2023-05-12T07:34:08;101977.94;;;17.14;58.14
18765;BME280;9511;54.242;12.448;2023-05-12T07:36:35;101974.53;;;17.22;58.68
18765;BME280;9511;54.242;12.448;2023-05-12T07:39:02;101968.22;;;17.19;58.40
18765;BME280;9511;54.242;12.448;2023-05-12T07:41:33;101967.34;;;17.20;57.64
18765;BME280;9511;54.242;12.448;2023-05-12T07:44:00;101976.44;;;17.30;57.74
18765;BME280;9511;54.242;12.448;2023-05-12T07:46:28;101966.81;;;17.41;56.36
18765;BME280;9511;54.242;12.448;2023-05-12T07:48:55;101981.78;;;17.30;54.80
18765;BME280;9511;54.242;12.448;2023-05-12T07:51:23;101970.44;;;17.44;54.86
18765;BME280;9511;54.242;12.448;2023-05-12T07:53:50;101968.78;;;17.54;53.88
18765;BME280;9511;54.242;12.448;2023-05-12T07:56:18;101974.25;;;17.60;54.27
18765;BME280;9511;54.242;12.448;2023-05-12T07:58:48;101976.38;;;17.80;54.26
18765;BME280;9511;54.242;12.448;2023-05-12T08:01:15;101973.78;;;17.86;53.72
18765;BME280;9511;54.242;12.448;2023-05-12T08:03:42;101967.69;;;17.96;53.59
18765;BME280;9511;54.242;12.448;2023-05-12T08:06:10;101982.00;;;17.98;52.69
18765;BME280;9511;54.242;12.448;2023-05-12T08:08:37;101976.72;;;18.05;51.61
18765;BME280;9511;54.242;12.448;2023-05-12T08:11:04;101975.16;;;18.21;51.94
18765;BME280;9511;54.242;12.448;2023-05-12T08:13:32;101975.44;;;18.41;51.80
18765;BME280;9511;54.242;12.448;2023-05-12T08:16:07;101966.66;;;18.53;51.18
18765;BME280;9511;54.242;12.448;2023-05-12T08:18:34;101976.50;;;18.57;50.70
18765;BME280;9511;54.242;12.448;2023-05-12T08:21:01;101969.34;;;18.57;50.90
18765;BME280;9511;54.242;12.448;2023-05-12T08:23:29;101978.44;;;18.69;50.71
18765;BME280;9511;54.242;12.448;2023-05-12T08:25:56;101979.50;;;18.81;49.95
18765;BME280;9511;54.242;12.448;2023-05-12T08:28:23;101982.25;;;18.91;49.02
18765;BME280;9511;54.242;12.448;2023-05-12T08:30:51;101977.97;;;19.05;48.70
18765;BME280;9511;54.242;12.448;2023-05-12T08:33:20;101984.22;;;19.07;48.07
18765;BME280;9511;54.242;12.448;2023-05-12T08:35:47;101983.28;;;19.02;48.33
18765;BME280;9511;54.242;12.448;2023-05-12T08:38:15;101978.97;;;19.21;48.40
18765;BME280;9511;54.242;12.448;2023-05-12T08:40:46;101981.84;;;19.39;48.34
18765;BME280;9511;54.242;12.448;2023-05-12T08:43:22;101982.69;;;19.38;47.38
18765;BME280;9511;54.242;12.448;2023-05-12T08:45:51;101975.75;;;19.58;47.89
18765;BME280;9511;54.242;12.448;2023-05-12T08:48:25;101972.25;;;19.69;47.62
18765;BME280;9511;54.242;12.448;2023-05-12T08:50:53;101967.78;;;19.71;46.65
18765;BME280;9511;54.242;12.448;2023-05-12T08:53:21;101975.88;;;19.77;46.48
18765;BME280;9511;54.242;12.448;2023-05-12T08:55:50;101979.38;;;19.63;46.15
18765;BME280;9511;54.242;12.448;2023-05-12T08:58:18;101969.63;;;19.76;46.42
18765;BME280;9511;54.242;12.448;2023-05-12T09:00:46;101972.41;;;19.93;46.82
18765;BME280;9511;54.242;12.448;2023-05-12T09:03:19;101962.63;;;20.03;45.50
18765;BME280;9511;54.242;12.448;2023-05-12T09:05:48;101962.69;;;20.18;46.06
18765;BME280;9511;54.242;12.448;2023-05-12T09:08:16;101965.53;;;20.47;46.26
18765;BME280;9511;54.242;12.448;2023-05-12T09:10:43;101958.38;;;20.58;45.02
18765;BME280;9511;54.242;12.448;2023-05-12T09:13:22;101956.63;;;20.59;44.40
18765;BME280;9511;54.242;12.448;2023-05-12T09:15:53;101970.06;;;20.54;44.78
18765;BME280;9511;54.242;12.448;2023-05-12T09:18:23;101970.06;;;20.60;44.74
18765;BME280;9511;54.242;12.448;2023-05-12T09:20:52;101971.81;;;20.51;44.29
18765;BME280;9511;54.242;12.448;2023-05-12T09:23:20;101963.75;;;20.52;44.86
18765;BME280;9511;54.242;12.448;2023-05-12T09:25:57;101969.06;;;20.45;44.52
18765;BME280;9511;54.242;12.448;2023-05-12T09:28:33;101965.63;;;20.78;45.05
18765;BME280;9511;54.242;12.448;2023-05-12T09:31:01;101966.56;;;21.00;43.99
18765;BME280;9511;54.242;12.448;2023-05-12T09:33:33;101971.94;;;20.87;43.59
18765;BME280;9511;54.242;12.448;2023-05-12T09:36:03;101967.38;;;20.63;42.64
18765;BME280;9511;54.242;12.448;2023-05-12T09:38:30;101962.03;;;20.76;43.40
18765;BME280;9511;54.242;12.448;2023-05-12T09:40:59;101964.78;;;21.14;43.70
18765;BME280;9511;54.242;12.448;2023-05-12T09:43:27;101957.63;;;21.39;43.16
18765;BME280;9511;54.242;12.448;2023-05-12T09:45:54;101965.72;;;21.57;43.38
18765;BME280;9511;54.242;12.448;2023-05-12T09:48:21;101961.22;;;21.47;42.59
18765;BME280;9511;54.242;12.448;2023-05-12T09:50:50;101961.22;;;21.64;42.51
18765;BME280;9511;54.242;12.448;2023-05-12T09:53:20;101946.84;;;21.74;41.89
18765;BME280;9511;54.242;12.448;2023-05-12T09:55:48;101962.09;;;21.75;42.16
18765;BME280;9511;54.242;12.448;2023-05-12T09:58:17;101954.88;;;21.79;41.81
18765;BME280;9511;54.242;12.448;2023-05-12T10:00:45;101957.53;;;22.01;41.83
18765;BME280;9511;54.242;12.448;2023-05-12T10:03:14;101961.16;;;21.94;40.56
18765;BME280;9511;54.242;12.448;2023-05-12T10:05:45;101944.09;;;21.97;41.59
18765;BME280;9511;54.242;12.448;2023-05-12T10:08:18;101949.44;;;22.00;41.21
18765;BME280;9511;54.242;12.448;2023-05-12T10:10:48;101957.53;;;22.09;40.98
18765;BME280;9511;54.242;12.448;2023-05-12T10:13:21;101954.78;;;22.32;40.92
18765;BME280;9511;54.242;12.448;2023-05-12T10:15:50;101954.75;;;22.35;40.13
18765;BME280;9511;54.242;12.448;2023-05-12T10:18:21;101953.97;;;21.93;39.63
18765;BME280;9511;54.242;12.448;2023-05-12T10:20:50;101959.34;;;21.89;39.85
18765;BME280;9511;54.242;12.448;2023-05-12T10:23:19;101954.81;;;22.09;39.77
18765;BME280;9511;54.242;12.448;2023-05-12T10:25:48;101956.63;;;22.12;38.96
18765;BME280;9511;54.242;12.448;2023-05-12T10:28:15;101952.09;;;22.23;39.92
18765;BME280;9511;54.242;12.448;2023-05-12T10:30:45;101947.34;;;22.74;39.90
18765;BME280;9511;54.242;12.448;2023-05-12T10:33:13;101954.56;;;22.69;38.32
18765;BME280;9511;54.242;12.448;2023-05-12T10:35:42;101949.97;;;22.82;38.53
18765;BME280;9511;54.242;12.448;2023-05-12T10:38:10;101940.03;;;22.96;37.72
18765;BME280;9511;54.242;12.448;2023-05-12T10:40:50;101949.03;;;22.96;38.23
18765;BME280;9511;54.242;12.448;2023-05-12T10:43:22;101937.38;;;22.91;37.61
18765;BME280;9511;54.242;12.448;2023-05-12T10:46:06;101951.03;;;22.61;37.18
18765;BME280;9511;54.242;12.448;2023-05-12T10:48:33;101952.81;;;22.62;37.37
18765;BME280;9511;54.242;12.448;2023-05-12T10:51:06;101939.13;;;23.00;37.44
18765;BME280;9511;54.242;12.448;2023-05-12T10:53:33;101941.06;;;22.72;36.31
18765;BME280;9511;54.242;12.448;2023-05-12T10:56:03;101945.41;;;22.97;37.14
18765;BME280;9511;54.242;12.448;2023-05-12T10:58:31;101935.50;;;23.01;36.40
18765;BME280;9511;54.242;12.448;2023-05-12T11:01:04;101939.97;;;23.07;36.32
18765;BME280;9511;54.242;12.448;2023-05-12T11:03:32;101929.13;;;23.11;35.80
18765;BME280;9511;54.242;12.448;2023-05-12T11:06:00;101930.03;;;23.12;35.65
18765;BME280;9511;54.242;12.448;2023-05-12T11:08:28;101946.22;;;23.10;35.98
18765;BME280;9511;54.242;12.448;2023-05-12T11:10:56;101934.25;;;23.42;35.61
18765;BME280;9511;54.242;12.448;2023-05-12T11:13:25;101931.72;;;23.23;35.71
18765;BME280;9511;54.242;12.448;2023-05-12T11:15:55;101929.94;;;23.21;35.61
18765;BME280;9511;54.242;12.448;2023-05-12T11:18:23;101925.22;;;23.44;35.54
18765;BME280;9511;54.242;12.448;2023-05-12T11:20:50;101931.38;;;23.65;36.22
18765;BME280;9511;54.242;12.448;2023-05-12T11:23:27;101930.88;;;24.07;35.39
18765;BME280;9511;54.242;12.448;2023-05-12T11:25:56;101937.97;;;24.18;35.21
18765;BME280;9511;54.242;12.448;2023-05-12T11:28:25;101936.97;;;24.25;34.75
18765;BME280;9511;54.242;12.448;2023-05-12T11:30:54;101932.06;;;23.83;34.91
18765;BME280;9511;54.242;12.448;2023-05-12T11:33:22;101938.50;;;23.72;33.82
18765;BME280;9511;54.242;12.448;2023-05-12T11:35:49;101931.06;;;23.92;34.58
18765;BME280;9511;54.242;12.448;2023-05-12T11:38:18;101932.41;;;24.30;33.91
18765;BME280;9511;54.242;12.448;2023-05-12T11:40:49;101935.78;;;24.50;34.03
18765;BME280;9511;54.242;12.448;2023-05-12T11:43:19;101925.16;;;24.30;34.47
18765;BME280;9511;54.242;12.448;2023-05-12T11:45:48;101923.59;;;24.13;34.23
18765;BME280;9511;54.242;12.448;2023-05-12T11:48:15;101937.56;;;24.51;34.26
18765;BME280;9511;54.242;12.448;2023-05-12T11:50:44;101940.69;;;24.82;34.12
18765;BME280;9511;54.242;12.448;2023-05-12T11:53:14;101943.25;;;24.95;33.89
18765;BME280;9511;54.242;12.448;2023-05-12T11:55:48;101939.06;;;24.72;33.65
18765;BME280;9511;54.242;12.448;2023-05-12T11:58:18;101942.72;;;24.68;33.77
18765;BME280;9511;54.242;12.448;2023-05-12T12:00:48;101939.22;;;24.61;33.89
18765;BME280;9511;54.242;12.448;2023-05-12T12:03:16;101940.94;;;24.66;34.25
18765;BME280;9511;54.242;12.448;2023-05-12T12:05:44;101935.38;;;24.78;33.95
18765;BME280;9511;54.242;12.448;2023-05-12T12:08:13;101937.00;;;24.88;34.37
18765;BME280;9511;54.242;12.448;2023-05-12T12:10:42;101934.97;;;25.05;33.37
18765;BME280;9511;54.242;12.448;2023-05-12T12:13:10;101939.13;;;25.26;33.25
18765;BME280;9511;54.242;12.448;2023-05-12T12:15:38;101938.56;;;25.07;33.45
18765;BME280;9511;54.242;12.448;2023-05-12T12:18:07;101936.91;;;24.94;34.10
18765;BME280;9511;54.242;12.448;2023-05-12T12:20:35;101942.19;;;25.06;34.66
18765;BME280;9511;54.242;12.448;2023-05-12T12:23:02;101942.28;;;24.97;34.58
18765;BME280;9511;54.242;12.448;2023-05-12T12:25:30;101937.66;;;25.05;34.13
18765;BME280;9511;54.242;12.448;2023-05-12T12:27:57;101941.19;;;25.12;34.08
18765;BME280;9511;54.242;12.448;2023-05-12T12:30:25;101943.75;;;25.20;34.86
18765;BME280;9511;54.242;12.448;2023-05-12T12:32:52;101944.28;;;24.83;35.19
18765;BME280;9511;54.242;12.448;2023-05-12T12:35:21;101944.66;;;25.20;35.13
18765;BME280;9511;54.242;12.448;2023-05-12T12:37:49;101934.50;;;25.33;36.20
18765;BME280;9511;54.242;12.448;2023-05-12T12:40:17;101948.25;;;25.21;34.87
18765;BME280;9511;54.242;12.448;2023-05-12T12:42:45;101950.00;;;25.25;35.10
18765;BME280;9511;54.242;12.448;2023-05-12T12:45:12;101940.56;;;25.49;35.60
18765;BME280;9511;54.242;12.448;2023-05-12T12:47:40;101955.91;;;25.48;35.28
18765;BME280;9511;54.242;12.448;2023-05-12T12:50:08;101943.91;;;25.10;34.55
18765;BME280;9511;54.242;12.448;2023-05-12T12:52:37;101941.91;;;25.22;35.60
18765;BME280;9511;54.242;12.448;2023-05-12T12:55:05;101945.91;;;25.53;35.59
18765;BME280;9511;54.242;12.448;2023-05-12T12:57:33;101939.69;;;25.45;35.95
18765;BME280;9511;54.242;12.448;2023-05-12T13:00:01;101942.06;;;25.65;34.86
18765;BME280;9511;54.242;12.448;2023-05-12T13:02:32;101931.47;;;25.53;34.83
18765;BME280;9511;54.242;12.448;2023-05-12T13:04:59;101939.69;;;25.45;33.95
18765;BME280;9511;54.242;12.448;2023-05-12T13:07:30;101941.69;;;25.35;33.88
18765;BME280;9511;54.242;12.448;2023-05-12T13:09:59;101943.19;;;25.53;33.36
18765;BME280;9511;54.242;12.448;2023-05-12T13:12:26;101933.22;;;26.02;33.52
18765;BME280;9511;54.242;12.448;2023-05-12T13:14:54;101939.44;;;25.60;33.75
18765;BME280;9511;54.242;12.448;2023-05-12T13:17:21;101943.00;;;25.64;34.60
18765;BME280;9511;54.242;12.448;2023-05-12T13:19:49;101938.47;;;25.64;33.62
18765;BME280;9511;54.242;12.448;2023-05-12T13:22:17;101938.25;;;25.77;34.30
18765;BME280;9511;54.242;12.448;2023-05-12T13:24:45;101933.69;;;25.79;33.91
18765;BME280;9511;54.242;12.448;2023-05-12T13:27:13;101940.28;;;25.62;34.14
18765;BME280;9511;54.242;12.448;2023-05-12T13:29:41;101943.16;;;26.03;34.05
18765;BME280;9511;54.242;12.448;2023-05-12T13:32:12;101946.44;;;26.18;33.78
18765;BME280;9511;54.242;12.448;2023-05-12T13:34:40;101944.38;;;26.31;33.39
18765;BME280;9511;54.242;12.448;2023-05-12T13:37:07;101945.72;;;26.10;33.62
18765;BME280;9511;54.242;12.448;2023-05-12T13:39:35;101941.56;;;25.92;32.98
18765;BME280;9511;54.242;12.448;2023-05-12T13:42:02;101948.38;;;26.13;32.75
18765;BME280;9511;54.242;12.448;2023-05-12T13:44:31;101940.69;;;25.90;33.13
18765;BME280;9511;54.242;12.448;2023-05-12T13:46:59;101936.44;;;26.20;34.01
18765;BME280;9511;54.242;12.448;2023-05-12T13:49:26;101941.69;;;25.86;34.03
18765;BME280;9511;54.242;12.448;2023-05-12T13:51:54;101944.22;;;26.37;34.10
18765;BME280;9511;54.242;12.448;2023-05-12T13:54:21;101940.56;;;26.40;32.89
18765;BME280;9511;54.242;12.448;2023-05-12T13:56:50;101950.13;;;26.59;31.98
18765;BME280;9511;54.242;12.448;2023-05-12T13:59:17;101933.63;;;26.27;32.58
18765;BME280;9511;54.242;12.448;2023-05-12T14:01:46;101941.78;;;25.82;32.89
18765;BME280;9511;54.242;12.448;2023-05-12T14:04:13;101939.06;;;25.82;33.75
18765;BME280;9511;54.242;12.448;2023-05-12T14:06:41;101933.94;;;26.11;33.49
18765;BME280;9511;54.242;12.448;2023-05-12T14:09:08;101941.50;;;26.39;33.04
18765;BME280;9511;54.242;12.448;2023-05-12T14:11:36;101939.16;;;26.22;32.64
18765;BME280;9511;54.242;12.448;2023-05-12T14:14:04;101932.84;;;25.77;32.47
18765;BME280;9511;54.242;12.448;2023-05-12T14:16:32;101940.50;;;25.50;32.35
18765;BME280;9511;54.242;12.448;2023-05-12T14:19:00;101935.63;;;25.71;32.69
18765;BME280;9511;54.242;12.448;2023-05-12T14:21:28;101937.69;;;26.06;32.31
18765;BME280;9511;54.242;12.448;2023-05-12T14:23:55;101939.50;;;26.05;31.96
18765;BME280;9511;54.242;12.448;2023-05-12T14:26:22;101946.59;;;25.63;32.31
18765;BME280;9511;54.242;12.448;2023-05-12T14:28:51;101944.88;;;26.07;32.38
18765;BME280;9511;54.242;12.448;2023-05-12T14:31:18;101946.47;;;25.71;32.10
18765;BME280;9511;54.242;12.448;2023-05-12T14:33:46;101945.19;;;25.93;31.29
18765;BME280;9511;54.242;12.448;2023-05-12T14:36:15;101936.56;;;26.16;31.65
18765;BME280;9511;54.242;12.448;2023-05-12T14:38:42;101942.53;;;26.33;31.38
18765;BME280;9511;54.242;12.448;2023-05-12T14:41:09;101943.16;;;26.04;31.23
18765;BME280;9511;54.242;12.448;2023-05-12T14:43:37;101939.63;;;25.98;31.57
18765;BME280;9511;54.242;12.448;2023-05-12T14:46:04;101939.00;;;25.85;31.29
18765;BME280;9511;54.242;12.448;2023-05-12T14:48:33;101944.63;;;25.76;31.05
18765;BME280;9511;54.242;12.448;2023-05-12T14:51:01;101949.25;;;26.15;30.95
18765;BME280;9511;54.242;12.448;2023-05-12T14:53:30;101943.66;;;25.78;30.70
18765;BME280;9511;54.242;12.448;2023-05-12T14:55:57;101947.00;;;25.92;30.78
18765;BME280;9511;54.242;12.448;2023-05-12T14:58:24;101940.22;;;26.13;30.93
18765;BME280;9511;54.242;12.448;2023-05-12T15:00:52;101946.41;;;25.77;31.45
18765;BME280;9511;54.242;12.448;2023-05-12T15:03:19;101938.84;;;25.43;31.32
18765;BME280;9511;54.242;12.448;2023-05-12T15:05:47;101945.16;;;25.43;31.33
18765;BME280;9511;54.242;12.448;2023-05-12T15:08:15;101944.88;;;25.59;30.80
18765;BME280;9511;54.242;12.448;2023-05-12T15:10:44;101940.09;;;25.73;30.47
18765;BME280;9511;54.242;12.448;2023-05-12T15:13:12;101941.69;;;25.34;30.58
18765;BME280;9511;54.242;12.448;2023-05-12T15:15:41;101929.25;;;25.76;31.21
18765;BME280;9511;54.242;12.448;2023-05-12T15:18:09;101938.00;;;25.89;33.23
18765;BME280;9511;54.242;12.448;2023-05-12T15:20:37;101934.75;;;25.70;33.04
18765;BME280;9511;54.242;12.448;2023-05-12T15:23:04;101930.56;;;25.52;33.73
18765;BME280;9511;54.242;12.448;2023-05-12T15:25:32;101937.75;;;26.01;33.18
18765;BME280;9511;54.242;12.448;2023-05-12T15:28:01;101935.88;;;25.58;33.29
18765;BME280;9511;54.242;12.448;2023-05-12T15:30:28;101938.72;;;25.49;32.68
18765;BME280;9511;54.242;12.448;2023-05-12T15:32:55;101933.00;;;25.66;33.42
18765;BME280;9511;54.242;12.448;2023-05-12T15:35:23;101937.88;;;25.95;33.62
18765;BME280;9511;54.242;12.448;2023-05-12T15:37:52;101944.13;;;25.51;33.86
18765;BME280;9511;54.242;12.448;2023-05-12T15:40:20;101941.19;;;25.10;33.79
18765;BME280;9511;54.242;12.448;2023-05-12T15:42:47;101951.13;;;25.62;33.90
18765;BME280;9511;54.242;12.448;2023-05-12T15:45:16;101936.78;;;26.05;33.53
18765;BME280;9511;54.242;12.448;2023-05-12T15:47:43;101940.59;;;25.95;33.19
18765;BME280;9511;54.242;12.448;2023-05-12T15:50:11;101947.03;;;25.89;33.25
18765;BME280;9511;54.242;12.448;2023-05-12T15:52:41;101942.63;;;25.84;32.83
18765;BME280;9511;54.242;12.448;2023-05-12T15:55:08;101943.56;;;26.26;32.84
18765;BME280;9511;54.242;12.448;2023-05-12T15:57:36;101947.63;;;25.56;32.36
18765;BME280;9511;54.242;12.448;2023-05-12T16:00:04;101949.91;;;25.31;32.93